Aérodrome :
LOGIN :

S'inscrire | Disclaimer

   EN    FR    IT 

 










Légende :    VFR   VFR Marginal   IFR   IFR Intensif   IFR Très Intensif
Visi : 
Plafond : 
>= 8 km
>= 3000ft
5 à 8 km
1000 à 3000 ft
1500m à 5 km
500 à 1000 ft
800 à 1500m
200 à 500 ft
< 800m
< 200 ft
Symboles :   Orages  Brouillard  Fortes neiges  Fortes précipitations  Vent > 20 kt
SIGMETs :   Divers  Orages  Givrage  Turbulence  Onde Orograph.  Cendres Volcan.






- Altitude de l'aérodrome : 468 ft
- Code IATA : GRO


LEGE - Girona Costa Brava

DERNIER METAR :
  • 100430Z 01010KT 330V050 CAVOK 08/02 Q1022

METARs EXPIRÉS :
  • 100400Z 02009KT 350V060 CAVOK 08/02 Q1022
  • 100330Z 03009KT CAVOK 08/03 Q1022
  • 100300Z 02007KT 340V050 CAVOK 07/02 Q1022
  • 100230Z 01006KT 310V050 CAVOK 08/03 Q1022
  • 100200Z 03010KT CAVOK 08/03 Q1022

TAF TAF LEGE
Valide du 10 à 00h jusqu'au 11 à 00h UTC


092300Z 1000/1024 VRB04KT 9999 FEW020 SCT050 TX15/1013Z TN04/1006Z



MET'MAP, la Météo Aéronautique d'un coup d'oeil ! - Copyright ORBIFLY Décembre 2007 - Disclaimer

ORBIFLY MET'MAP TEAM :

Programmation & Développement : Alexandra Zaïnal
Sur une idée originale de : Baudouin d'Aumeries
Assistance à la programmation : Marc-Olivier Méhu
Soutien technique & logistique : Manuel Goepfert

Contact : metmap@orbifly.com




SOURCES & CREDITS :

   NOAA